createdAt,value
2019-01-18T00:00:20.742Z,2.84
2019-01-18T00:01:20.750Z,2.84
2019-01-18T00:03:13.651Z,2.84
2019-01-18T00:04:13.651Z,2.90
2019-01-18T00:06:06.540Z,2.84
2019-01-18T00:07:06.549Z,2.93
2019-01-18T00:08:59.446Z,2.79
2019-01-18T00:09:59.446Z,2.81
2019-01-18T00:11:52.338Z,2.78
2019-01-18T00:12:52.345Z,2.77
2019-01-18T00:14:45.247Z,2.79
2019-01-18T00:15:45.245Z,2.85
2019-01-18T00:17:38.139Z,2.75
2019-01-18T00:18:38.141Z,2.78
2019-01-18T00:20:31.032Z,2.75
2019-01-18T00:21:31.039Z,2.74
2019-01-18T00:23:23.936Z,2.75
2019-01-18T00:24:23.938Z,2.78
2019-01-18T00:26:16.826Z,2.79
2019-01-18T00:27:16.835Z,2.79
2019-01-18T00:29:09.731Z,2.71
2019-01-18T00:30:09.731Z,2.78
2019-01-18T00:32:02.621Z,2.84
2019-01-18T00:33:02.630Z,2.81
2019-01-18T00:34:55.526Z,2.74
2019-01-18T00:35:55.527Z,2.72
2019-01-18T00:37:48.418Z,2.71
2019-01-18T00:38:48.427Z,2.75
2019-01-18T00:40:41.331Z,2.81
2019-01-18T00:41:41.324Z,2.71
2019-01-18T00:43:34.248Z,2.69
2019-01-18T00:44:34.222Z,2.69
2019-01-18T00:46:27.111Z,2.69
2019-01-18T00:47:27.120Z,2.69
2019-01-18T00:49:20.020Z,2.67
2019-01-18T00:50:20.018Z,2.67
2019-01-18T00:52:12.910Z,2.67
2019-01-18T00:53:12.918Z,2.71
2019-01-18T00:55:05.818Z,2.74
2019-01-18T00:56:05.816Z,2.69
2019-01-18T00:57:58.705Z,2.78
2019-01-18T00:58:58.718Z,2.77
2019-01-18T01:00:51.615Z,2.81
2019-01-18T01:01:51.615Z,2.78
2019-01-18T01:03:44.503Z,2.79
2019-01-18T01:04:44.514Z,2.85
2019-01-18T01:06:37.409Z,2.81
2019-01-18T01:07:37.409Z,2.82
2019-01-18T01:09:30.317Z,2.85
2019-01-18T01:10:30.306Z,2.81
2019-01-18T01:12:23.198Z,2.89
2019-01-18T01:13:23.204Z,2.84
2019-01-18T01:15:16.106Z,2.96
2019-01-18T01:16:16.110Z,2.95
2019-01-18T01:18:08.997Z,3.05
2019-01-18T01:19:09.005Z,3.15
2019-01-18T01:21:01.905Z,3.14
2019-01-18T01:22:01.907Z,3.11
2019-01-18T01:23:54.793Z,3.02
2019-01-18T01:24:54.851Z,3.03
2019-01-18T01:26:47.698Z,3.08
2019-01-18T01:27:47.702Z,3.03
2019-01-18T01:29:43.201Z,3.11
2019-01-18T01:30:40.597Z,3.10
2019-01-18T01:32:33.497Z,3.14
2019-01-18T01:33:33.497Z,3.03
2019-01-18T01:35:26.402Z,2.93
2019-01-18T01:36:26.398Z,2.97
2019-01-18T01:38:19.288Z,2.85
2019-01-18T01:39:19.297Z,2.84
2019-01-18T01:41:12.194Z,2.78
2019-01-18T01:42:12.195Z,2.74
2019-01-18T01:44:05.084Z,2.69
2019-01-18T01:45:05.090Z,2.59
2019-01-18T01:46:57.990Z,2.54
2019-01-18T01:47:57.987Z,2.63
2019-01-18T01:49:50.876Z,2.52
2019-01-18T01:50:50.884Z,2.52
2019-01-18T01:52:43.781Z,2.52
2019-01-18T01:53:43.780Z,2.46
2019-01-18T01:55:36.692Z,2.52
2019-01-18T01:56:36.677Z,2.48
2019-01-18T01:58:29.566Z,2.39
2019-01-18T01:59:29.574Z,2.46
2019-01-18T02:01:22.472Z,2.52
2019-01-18T02:02:22.472Z,2.46
2019-01-18T02:04:15.358Z,2.56
2019-01-18T02:05:15.368Z,2.46
2019-01-18T02:07:08.267Z,2.60
2019-01-18T02:08:08.266Z,2.59
2019-01-18T02:10:01.156Z,2.64
2019-01-18T02:11:01.164Z,2.60
2019-01-18T02:12:54.062Z,2.59
2019-01-18T02:13:54.059Z,2.61
2019-01-18T02:15:46.948Z,2.57
2019-01-18T02:16:46.957Z,2.64
2019-01-18T02:18:39.854Z,2.49
2019-01-18T02:19:39.854Z,2.52
2019-01-18T02:21:32.755Z,2.49
2019-01-18T02:22:32.757Z,2.41
2019-01-18T02:24:25.646Z,2.39
2019-01-18T02:25:25.655Z,2.30
2019-01-18T02:27:18.554Z,2.28
2019-01-18T02:28:18.555Z,2.21
2019-01-18T02:30:11.451Z,2.18
2019-01-18T02:31:11.450Z,2.18
2019-01-18T02:33:04.349Z,2.12
2019-01-18T02:34:04.349Z,2.16
2019-01-18T02:35:57.239Z,2.17
2019-01-18T02:36:57.244Z,2.18
2019-01-18T02:38:50.143Z,2.24
2019-01-18T02:39:50.142Z,2.18
2019-01-18T02:41:43.035Z,2.07
2019-01-18T02:42:43.043Z,2.16
2019-01-18T02:44:35.940Z,2.07
2019-01-18T02:45:35.946Z,1.98
2019-01-18T02:47:28.837Z,2.05
2019-01-18T02:48:28.833Z,1.95
2019-01-18T02:50:21.725Z,2.03
2019-01-18T02:51:21.734Z,2.00
2019-01-18T02:53:14.652Z,1.93
2019-01-18T02:54:14.630Z,1.90
2019-01-18T02:56:07.519Z,1.98
2019-01-18T02:57:07.530Z,1.93
2019-01-18T02:59:00.501Z,1.95
2019-01-18T03:00:04.886Z,1.90
2019-01-18T03:01:53.316Z,1.86
2019-01-18T03:02:53.324Z,1.80
2019-01-18T03:04:46.221Z,1.84
2019-01-18T03:05:46.219Z,1.91
2019-01-18T03:07:39.580Z,1.84
2019-01-18T03:08:39.587Z,1.79
2019-01-18T03:10:32.485Z,1.86
2019-01-18T03:11:32.486Z,1.80
2019-01-18T03:13:25.390Z,1.79
2019-01-18T03:14:26.148Z,1.80
2019-01-18T03:16:18.269Z,1.69
2019-01-18T03:17:18.278Z,1.73
2019-01-18T03:19:11.173Z,1.73
2019-01-18T03:20:11.173Z,1.72
2019-01-18T03:22:04.058Z,1.73
2019-01-18T03:23:04.067Z,1.65
2019-01-18T03:24:56.966Z,1.66
2019-01-18T03:25:56.963Z,1.70
2019-01-18T03:27:49.863Z,1.73
2019-01-18T03:28:49.865Z,1.62
2019-01-18T03:30:42.763Z,1.70
2019-01-18T03:31:42.761Z,1.63
2019-01-18T03:33:35.657Z,1.60
2019-01-18T03:34:35.658Z,1.68
2019-01-18T03:36:28.551Z,1.68
2019-01-18T03:37:28.552Z,1.63
2019-01-18T03:39:21.446Z,1.66
2019-01-18T03:40:21.446Z,1.68
2019-01-18T03:42:14.335Z,1.65
2019-01-18T03:43:14.341Z,1.59
2019-01-18T03:45:07.236Z,1.51
2019-01-18T03:46:07.238Z,1.60
2019-01-18T03:48:00.123Z,1.60
2019-01-18T03:49:00.130Z,1.54
2019-01-18T03:50:53.027Z,1.58
2019-01-18T03:51:53.029Z,1.55
2019-01-18T03:53:45.920Z,1.59
2019-01-18T03:54:45.925Z,1.59
2019-01-18T03:56:38.818Z,1.51
2019-01-18T03:57:38.819Z,1.48
2019-01-18T03:59:31.715Z,1.48
2019-01-18T04:00:31.718Z,1.36
2019-01-18T04:02:24.602Z,1.36
2019-01-18T04:03:24.609Z,1.42
2019-01-18T04:05:17.507Z,1.37
2019-01-18T04:06:17.506Z,1.34
2019-01-18T04:08:10.396Z,1.34
2019-01-18T04:09:10.403Z,1.37
2019-01-18T04:11:03.297Z,1.37
2019-01-18T04:12:03.297Z,1.45
2019-01-18T04:13:56.188Z,1.37
2019-01-18T04:14:56.193Z,1.34
2019-01-18T04:16:49.090Z,1.24
2019-01-18T04:17:49.091Z,1.27
2019-01-18T04:19:41.977Z,1.18
2019-01-18T04:20:42.003Z,1.23
2019-01-18T04:22:34.878Z,1.22
2019-01-18T04:23:34.877Z,1.22
2019-01-18T04:25:27.771Z,1.15
2019-01-18T04:26:27.770Z,1.11
2019-01-18T04:28:20.665Z,1.22
2019-01-18T04:29:20.666Z,1.16
2019-01-18T04:31:13.560Z,1.08
2019-01-18T04:32:13.560Z,1.09
2019-01-18T04:34:06.446Z,1.05
2019-01-18T04:35:06.454Z,1.08
2019-01-18T04:36:59.347Z,1.11
2019-01-18T04:37:59.350Z,1.08
2019-01-18T04:39:52.234Z,1.04
2019-01-18T04:40:52.240Z,1.04
2019-01-18T04:42:45.135Z,1.05
2019-01-18T04:43:45.136Z,1.00
2019-01-18T04:45:38.025Z,1.02
2019-01-18T04:46:38.031Z,1.02
2019-01-18T04:48:30.927Z,1.02
2019-01-18T04:49:30.927Z,0.94
2019-01-18T04:51:23.823Z,0.96
2019-01-18T04:52:23.820Z,0.98
2019-01-18T04:54:16.707Z,1.00
2019-01-18T04:55:16.714Z,0.97
2019-01-18T04:57:09.609Z,0.97
2019-01-18T04:58:09.610Z,1.04
2019-01-18T05:00:02.496Z,1.02
2019-01-18T05:01:02.512Z,0.84
2019-01-18T05:02:55.398Z,0.86
2019-01-18T05:03:55.399Z,1.02
2019-01-18T05:05:48.283Z,0.97
2019-01-18T05:06:48.297Z,0.93
2019-01-18T05:08:41.184Z,0.93
2019-01-18T05:09:41.202Z,0.90
2019-01-18T05:11:34.073Z,0.87
2019-01-18T05:12:34.081Z,0.87
2019-01-18T05:14:26.978Z,0.86
2019-01-18T05:15:26.976Z,0.90
2019-01-18T05:17:19.868Z,0.87
2019-01-18T05:18:19.871Z,0.90
2019-01-18T05:20:12.756Z,0.87
2019-01-18T05:21:12.764Z,0.76
2019-01-18T05:23:05.712Z,0.73
2019-01-18T05:24:05.661Z,0.76
2019-01-18T05:25:58.546Z,0.83
2019-01-18T05:26:58.552Z,0.76
2019-01-18T05:28:51.446Z,0.79
2019-01-18T05:29:51.446Z,0.73
2019-01-18T05:31:44.330Z,0.80
2019-01-18T05:32:44.337Z,0.79
2019-01-18T05:34:37.235Z,0.83
2019-01-18T05:35:37.232Z,0.78
2019-01-18T05:37:30.116Z,0.70
2019-01-18T05:38:30.123Z,0.65
2019-01-18T05:40:23.018Z,0.79
2019-01-18T05:41:23.026Z,0.76
2019-01-18T05:43:15.915Z,0.73
2019-01-18T05:44:15.913Z,0.69
2019-01-18T05:46:08.803Z,0.73
2019-01-18T05:47:08.810Z,0.69
2019-01-18T05:49:01.704Z,0.70
2019-01-18T05:50:01.703Z,0.72
2019-01-18T05:51:54.590Z,0.75
2019-01-18T05:52:54.596Z,0.70
2019-01-18T05:54:47.495Z,0.69
2019-01-18T05:55:47.492Z,0.68
2019-01-18T05:57:40.379Z,0.76
2019-01-18T05:58:40.387Z,0.69
2019-01-18T06:00:33.278Z,0.72
2019-01-18T06:01:33.348Z,0.73
2019-01-18T06:03:26.169Z,0.62
2019-01-18T06:04:26.170Z,0.61
2019-01-18T06:06:19.066Z,0.60
2019-01-18T06:07:19.065Z,0.55
2019-01-18T06:09:11.958Z,0.55
2019-01-18T06:10:11.954Z,0.57
2019-01-18T06:12:04.840Z,0.62
2019-01-18T06:13:04.851Z,0.58
2019-01-18T06:14:57.743Z,0.60
2019-01-18T06:15:57.744Z,0.55
2019-01-18T06:17:50.631Z,0.53
2019-01-18T06:18:50.646Z,0.51
2019-01-18T06:20:43.535Z,0.50
2019-01-18T06:21:43.532Z,0.53
2019-01-18T06:23:36.423Z,0.47
2019-01-18T06:24:36.432Z,0.55
2019-01-18T06:26:29.327Z,0.51
2019-01-18T06:27:29.323Z,0.50
2019-01-18T06:29:22.211Z,0.57
2019-01-18T06:30:22.216Z,0.55
2019-01-18T06:32:15.111Z,0.50
2019-01-18T06:33:15.109Z,0.57
2019-01-18T06:35:08.008Z,0.51
2019-01-18T06:36:08.005Z,0.49
2019-01-18T06:38:00.896Z,0.50
2019-01-18T06:39:00.903Z,0.57
2019-01-18T06:40:53.799Z,0.55
2019-01-18T06:41:53.798Z,0.51
2019-01-18T06:43:46.697Z,0.49
2019-01-18T06:44:46.690Z,0.50
2019-01-18T06:46:39.584Z,0.38
2019-01-18T06:47:39.581Z,0.41
2019-01-18T06:49:32.467Z,0.44
2019-01-18T06:50:32.476Z,0.46
2019-01-18T06:52:25.370Z,0.42
2019-01-18T06:53:25.365Z,0.38
2019-01-18T06:55:18.255Z,0.38
2019-01-18T06:56:18.260Z,0.26
2019-01-18T06:58:11.157Z,0.36
2019-01-18T06:59:11.157Z,0.35
2019-01-18T07:01:08.487Z,0.35
2019-01-18T07:02:04.048Z,0.29
2019-01-18T07:03:56.936Z,0.36
2019-01-18T07:04:56.942Z,0.35
2019-01-18T07:06:49.838Z,0.38
2019-01-18T07:07:49.836Z,0.35
2019-01-18T07:09:42.725Z,0.50
2019-01-18T07:10:42.732Z,0.51
2019-01-18T07:12:35.626Z,0.46
2019-01-18T07:13:35.624Z,0.47
2019-01-18T07:15:28.512Z,0.50
2019-01-18T07:16:28.518Z,0.55
2019-01-18T07:18:21.470Z,0.61
2019-01-18T07:19:21.413Z,0.69
2019-01-18T07:21:14.306Z,0.70
2019-01-18T07:22:14.306Z,0.69
2019-01-18T07:24:07.202Z,0.69
2019-01-18T07:25:07.200Z,0.66
2019-01-18T07:27:00.096Z,0.73
2019-01-18T07:28:00.095Z,0.75
2019-01-18T07:29:52.984Z,0.83
2019-01-18T07:30:52.993Z,0.78
2019-01-18T07:32:45.885Z,0.76
2019-01-18T07:33:45.883Z,0.75
2019-01-18T07:35:38.769Z,0.79
2019-01-18T07:36:38.785Z,0.80
2019-01-18T07:38:31.675Z,0.87
2019-01-18T07:39:31.671Z,0.80
2019-01-18T07:41:24.561Z,0.79
2019-01-18T07:42:24.566Z,0.79
2019-01-18T07:44:17.464Z,0.80
2019-01-18T07:45:17.461Z,0.78
2019-01-18T07:47:10.358Z,0.87
2019-01-18T07:48:10.358Z,0.90
2019-01-18T07:50:03.249Z,0.86
2019-01-18T07:51:03.253Z,0.88
2019-01-18T07:52:56.146Z,0.87
2019-01-18T07:53:56.145Z,0.84
2019-01-18T07:55:49.032Z,0.86
2019-01-18T07:56:49.039Z,0.90
2019-01-18T07:58:41.933Z,0.87
2019-01-18T07:59:41.936Z,0.97
2019-01-18T08:01:34.819Z,1.04
2019-01-18T08:02:34.827Z,1.05
2019-01-18T08:04:27.724Z,1.06
2019-01-18T08:05:27.726Z,1.15
2019-01-18T08:07:20.609Z,1.24
2019-01-18T08:08:20.617Z,1.27
2019-01-18T08:10:13.511Z,1.27
2019-01-18T08:11:13.512Z,1.41
2019-01-18T08:13:06.412Z,1.37
2019-01-18T08:14:06.405Z,1.41
2019-01-18T08:15:59.297Z,1.52
2019-01-18T08:16:59.305Z,1.51
2019-01-18T08:18:52.198Z,1.51
2019-01-18T08:19:52.198Z,1.54
2019-01-18T08:21:45.087Z,1.60
2019-01-18T08:22:45.095Z,1.59
2019-01-18T08:24:37.990Z,1.60
2019-01-18T08:25:37.993Z,1.65
2019-01-18T08:27:30.883Z,1.66
2019-01-18T08:28:30.886Z,1.66
2019-01-18T08:30:23.781Z,1.69
2019-01-18T08:31:28.941Z,1.77
2019-01-18T08:33:16.686Z,1.80
2019-01-18T08:34:16.676Z,1.80
2019-01-18T08:36:09.565Z,1.88
2019-01-18T08:37:09.572Z,1.86
2019-01-18T08:39:02.469Z,1.91
2019-01-18T08:40:02.469Z,1.91
2019-01-18T08:41:55.358Z,1.93
2019-01-18T08:42:55.366Z,2.06
2019-01-18T08:44:48.262Z,1.99
2019-01-18T08:45:48.263Z,2.09
2019-01-18T08:47:41.153Z,2.00
2019-01-18T08:48:41.160Z,2.10
2019-01-18T08:50:34.058Z,2.09
2019-01-18T08:51:34.060Z,1.99
2019-01-18T08:53:26.945Z,1.90
2019-01-18T08:54:26.952Z,1.91
2019-01-18T08:56:19.847Z,1.95
2019-01-18T08:57:19.848Z,1.91
2019-01-18T08:59:12.753Z,1.91
2019-01-18T09:00:12.747Z,2.03
2019-01-18T09:02:05.688Z,1.98
2019-01-18T09:03:05.642Z,1.99
2019-01-18T09:04:58.537Z,2.12
2019-01-18T09:05:58.537Z,2.12
2019-01-18T09:07:51.427Z,2.07
2019-01-18T09:08:51.436Z,2.07
2019-01-18T09:10:44.333Z,2.09
2019-01-18T09:11:44.330Z,2.14
2019-01-18T09:13:37.222Z,2.10
2019-01-18T09:14:37.230Z,2.16
2019-01-18T09:16:30.124Z,2.24
2019-01-18T09:17:30.124Z,2.12
2019-01-18T09:19:23.015Z,2.09
2019-01-18T09:20:23.024Z,2.14
2019-01-18T09:22:15.921Z,2.14
2019-01-18T09:23:15.921Z,2.16
2019-01-18T09:25:08.820Z,2.18
2019-01-18T09:26:08.818Z,2.14
2019-01-18T09:28:01.708Z,2.25
2019-01-18T09:29:01.717Z,2.27
2019-01-18T09:30:54.608Z,2.28
2019-01-18T09:31:54.615Z,2.25
2019-01-18T09:33:47.499Z,2.38
2019-01-18T09:34:47.507Z,2.36
2019-01-18T09:36:40.404Z,2.41
2019-01-18T09:37:40.405Z,2.41
2019-01-18T09:39:33.293Z,2.49
2019-01-18T09:40:33.321Z,2.52
2019-01-18T09:42:26.197Z,2.46
2019-01-18T09:43:26.197Z,2.56
2019-01-18T09:45:19.087Z,2.56
2019-01-18T09:46:19.093Z,2.57
2019-01-18T09:48:11.991Z,2.72
2019-01-18T09:49:11.991Z,2.74
2019-01-18T09:51:04.891Z,2.66
2019-01-18T09:52:04.890Z,2.69
2019-01-18T09:53:57.781Z,2.72
2019-01-18T09:54:57.788Z,2.63
2019-01-18T09:56:50.689Z,2.67
2019-01-18T09:57:50.688Z,2.63
2019-01-18T09:59:43.585Z,2.66
2019-01-18T10:00:43.586Z,2.75
2019-01-18T10:02:36.485Z,2.87
2019-01-18T10:03:36.485Z,2.90
2019-01-18T10:05:29.378Z,3.00
2019-01-18T10:06:29.385Z,2.96
2019-01-18T10:08:22.287Z,2.97
2019-01-18T10:09:22.284Z,3.02
2019-01-18T10:11:15.172Z,3.08
2019-01-18T10:12:15.181Z,3.17
2019-01-18T10:14:08.078Z,3.20
2019-01-18T10:15:08.081Z,3.14
2019-01-18T10:17:00.980Z,3.13
2019-01-18T10:18:01.070Z,3.29
2019-01-18T10:19:53.867Z,3.26
2019-01-18T10:20:53.876Z,3.20
2019-01-18T10:22:46.774Z,3.28
2019-01-18T10:23:46.774Z,3.32
2019-01-18T10:25:39.665Z,3.24
2019-01-18T10:26:39.670Z,3.28
2019-01-18T10:28:32.569Z,3.35
2019-01-18T10:29:32.570Z,3.40
2019-01-18T10:31:25.463Z,3.39
2019-01-18T10:32:25.470Z,3.31
2019-01-18T10:34:18.369Z,3.26
2019-01-18T10:35:18.369Z,3.32
2019-01-18T10:37:11.276Z,3.42
2019-01-18T10:38:11.266Z,3.39
2019-01-18T10:40:04.168Z,3.43
2019-01-18T10:41:04.164Z,3.50
2019-01-18T10:42:57.063Z,3.43
2019-01-18T10:43:57.063Z,3.55
2019-01-18T10:45:49.952Z,3.58
2019-01-18T10:46:49.960Z,3.57
2019-01-18T10:48:42.859Z,3.54
2019-01-18T10:49:42.860Z,3.52
2019-01-18T10:51:35.748Z,3.66
2019-01-18T10:52:35.757Z,3.60
2019-01-18T10:54:28.666Z,3.61
2019-01-18T10:55:28.658Z,3.66
2019-01-18T10:57:21.550Z,3.57
2019-01-18T10:58:21.559Z,3.58
2019-01-18T11:00:14.455Z,3.51
2019-01-18T11:01:14.455Z,3.51
2019-01-18T11:03:07.355Z,3.55
2019-01-18T11:04:07.359Z,3.50
2019-01-18T11:06:00.298Z,3.51
2019-01-18T11:07:00.255Z,3.60
2019-01-18T11:08:53.156Z,3.60
2019-01-18T11:09:53.156Z,3.65
2019-01-18T11:11:46.043Z,3.75
2019-01-18T11:12:46.054Z,3.78
2019-01-18T11:14:38.951Z,3.88
2019-01-18T11:15:38.954Z,3.83
2019-01-18T11:17:31.841Z,3.97
2019-01-18T11:18:31.851Z,3.84
2019-01-18T11:20:24.748Z,3.94
2019-01-18T11:21:24.748Z,3.87
2019-01-18T11:23:17.657Z,3.87
2019-01-18T11:24:17.649Z,3.90
2019-01-18T11:26:10.543Z,3.84
2019-01-18T11:27:10.552Z,3.87
2019-01-18T11:29:03.447Z,3.90
2019-01-18T11:30:03.448Z,3.87
2019-01-18T11:31:56.337Z,3.97
2019-01-18T11:32:56.345Z,3.97
2019-01-18T11:34:49.245Z,3.97
2019-01-18T11:35:49.250Z,4.05
2019-01-18T11:37:42.161Z,4.06
2019-01-18T11:38:42.148Z,3.97
2019-01-18T11:40:35.048Z,3.91
2019-01-18T11:41:35.049Z,4.02
2019-01-18T11:43:27.958Z,3.97
2019-01-18T11:44:27.946Z,4.05
2019-01-18T11:46:20.837Z,4.04
2019-01-18T11:47:20.844Z,4.04
2019-01-18T11:49:13.741Z,3.90
2019-01-18T11:50:13.743Z,4.02
2019-01-18T11:52:06.634Z,4.05
2019-01-18T11:53:06.640Z,3.98
2019-01-18T11:54:59.537Z,4.15
2019-01-18T11:55:59.539Z,4.14
2019-01-18T11:57:52.431Z,4.16
2019-01-18T11:58:52.440Z,4.11
2019-01-18T12:00:45.336Z,4.18
2019-01-18T12:01:45.340Z,4.16
2019-01-18T12:03:38.231Z,4.23
2019-01-18T12:04:38.239Z,4.18
2019-01-18T12:06:31.283Z,4.30
2019-01-18T12:07:31.285Z,4.34
2019-01-18T12:09:24.185Z,4.41
2019-01-18T12:10:24.185Z,4.48
2019-01-18T12:12:17.078Z,4.45
2019-01-18T12:13:17.085Z,4.52
2019-01-18T12:15:09.986Z,4.60
2019-01-18T12:16:09.991Z,4.54
2019-01-18T12:18:03.320Z,4.67
2019-01-18T12:19:02.889Z,4.70
2019-01-18T12:20:55.816Z,4.72
2019-01-18T12:21:55.791Z,4.72
2019-01-18T12:23:48.684Z,4.77
2019-01-18T12:24:48.690Z,4.78
2019-01-18T12:26:42.086Z,4.70
2019-01-18T12:27:42.087Z,4.85
2019-01-18T12:29:34.988Z,4.77
2019-01-18T12:30:34.989Z,4.77
2019-01-18T12:32:28.795Z,4.67
2019-01-18T12:33:28.388Z,4.70
2019-01-18T12:35:21.283Z,4.75
2019-01-18T12:36:21.284Z,4.82
2019-01-18T12:38:14.179Z,4.72
2019-01-18T12:39:14.186Z,4.85
2019-01-18T12:41:07.083Z,4.84
2019-01-18T12:42:07.089Z,4.82
2019-01-18T12:43:59.978Z,4.86
2019-01-18T12:45:01.162Z,4.73
2019-01-18T12:46:52.887Z,4.91
2019-01-18T12:47:52.888Z,4.84
2019-01-18T12:49:45.784Z,4.78
2019-01-18T12:50:45.787Z,4.86
2019-01-18T12:52:38.684Z,4.75
2019-01-18T12:53:38.691Z,4.70
2019-01-18T12:55:31.589Z,4.73
2019-01-18T12:56:31.591Z,4.69
2019-01-18T12:58:24.481Z,4.80
2019-01-18T12:59:24.492Z,4.82
2019-01-18T13:01:17.388Z,4.84
2019-01-18T13:02:17.391Z,4.92
2019-01-18T13:04:10.285Z,4.97
2019-01-18T13:05:10.320Z,5.03
2019-01-18T13:07:03.196Z,5.10
2019-01-18T13:08:03.195Z,5.04
2019-01-18T13:09:56.084Z,5.06
2019-01-18T13:10:56.095Z,5.06
2019-01-18T13:12:48.995Z,5.09
2019-01-18T13:13:48.996Z,5.03
2019-01-18T13:15:41.893Z,5.04
2019-01-18T13:16:41.897Z,5.12
2019-01-18T13:18:34.789Z,5.12
2019-01-18T13:19:34.799Z,5.17
2019-01-18T13:21:27.697Z,5.17
2019-01-18T13:22:27.699Z,5.13
2019-01-18T13:24:20.594Z,5.10
2019-01-18T13:25:20.601Z,5.10
2019-01-18T13:27:13.500Z,5.12
2019-01-18T13:28:13.502Z,5.12
2019-01-18T13:30:06.397Z,5.10
2019-01-18T13:31:06.404Z,5.07
2019-01-18T13:32:59.307Z,5.00
2019-01-18T13:34:02.999Z,5.04
2019-01-18T13:35:52.205Z,5.09
2019-01-18T13:36:52.210Z,5.07
2019-01-18T13:38:45.106Z,5.02
2019-01-18T13:39:45.106Z,5.02
2019-01-18T13:41:38.041Z,5.04
2019-01-18T13:42:38.010Z,5.06
2019-01-18T13:44:30.903Z,5.15
2019-01-18T13:45:30.918Z,5.13
2019-01-18T13:47:23.813Z,5.12
2019-01-18T13:48:23.818Z,5.13
2019-01-18T13:50:16.711Z,5.12
2019-01-18T13:51:16.716Z,5.22
2019-01-18T13:53:09.619Z,5.21
2019-01-18T13:54:09.705Z,5.10
2019-01-18T13:56:02.520Z,5.17
2019-01-18T13:57:02.541Z,5.12
2019-01-18T13:58:55.422Z,5.12
2019-01-18T13:59:55.424Z,5.09
2019-01-18T14:01:48.323Z,5.07
2019-01-18T14:02:48.783Z,5.18
2019-01-18T14:04:41.216Z,5.13
2019-01-18T14:05:41.229Z,5.09
2019-01-18T14:07:34.126Z,4.97
2019-01-18T14:08:34.130Z,5.06
2019-01-18T14:10:27.018Z,5.02
2019-01-18T14:11:27.026Z,5.03
2019-01-18T14:13:19.925Z,5.02
2019-01-18T14:14:19.926Z,5.06
2019-01-18T14:16:12.819Z,5.09
2019-01-18T14:17:12.828Z,5.10
2019-01-18T14:19:05.743Z,5.07
2019-01-18T14:20:05.741Z,5.15
2019-01-18T14:21:59.637Z,5.10
2019-01-18T14:22:59.638Z,5.12
2019-01-18T14:24:52.530Z,5.09
2019-01-18T14:25:52.542Z,5.15
2019-01-18T14:27:45.437Z,5.12
2019-01-18T14:28:45.441Z,5.15
2019-01-18T14:30:38.335Z,5.17
2019-01-18T14:31:38.343Z,5.09
2019-01-18T14:33:31.241Z,5.10
2019-01-18T14:34:31.244Z,5.12
2019-01-18T14:36:24.275Z,5.06
2019-01-18T14:37:24.285Z,5.06
2019-01-18T14:39:17.216Z,5.04
2019-01-18T14:40:17.191Z,5.09
2019-01-18T14:42:10.085Z,5.07
2019-01-18T14:43:10.085Z,5.07
2019-01-18T14:45:02.979Z,5.04
2019-01-18T14:46:02.988Z,5.06
2019-01-18T14:47:55.889Z,5.02
2019-01-18T14:48:55.892Z,5.03
2019-01-18T14:50:48.788Z,5.06
2019-01-18T14:51:48.794Z,5.02
2019-01-18T14:53:41.689Z,5.00
2019-01-18T14:54:41.694Z,5.04
2019-01-18T14:56:34.585Z,5.00
2019-01-18T14:57:34.595Z,4.92
2019-01-18T14:59:27.496Z,4.85
2019-01-18T15:00:27.495Z,4.92
2019-01-18T15:02:20.406Z,4.80
2019-01-18T15:03:20.396Z,4.85
2019-01-18T15:05:13.287Z,4.80
2019-01-18T15:06:13.296Z,4.75
2019-01-18T15:08:06.202Z,4.63
2019-01-18T15:09:06.200Z,4.58
2019-01-18T15:10:59.091Z,4.55
2019-01-18T15:11:59.101Z,4.54
2019-01-18T15:13:51.998Z,4.52
2019-01-18T15:14:52.000Z,4.47
2019-01-18T15:16:44.896Z,4.52
2019-01-18T15:17:44.967Z,4.51
2019-01-18T15:19:37.797Z,4.40
2019-01-18T15:20:37.800Z,4.33
2019-01-18T15:22:30.690Z,4.29
2019-01-18T15:23:30.702Z,4.24
2019-01-18T15:25:23.598Z,4.23
2019-01-18T15:26:23.600Z,4.23
2019-01-18T15:28:16.499Z,4.20
2019-01-18T15:29:16.502Z,4.14
2019-01-18T15:31:09.407Z,4.09
2019-01-18T15:32:09.418Z,3.97
2019-01-18T15:34:02.313Z,4.02
2019-01-18T15:35:02.315Z,3.96
2019-01-18T15:36:55.204Z,3.84
2019-01-18T15:37:55.212Z,3.84
2019-01-18T15:39:48.153Z,3.80
2019-01-18T15:40:48.123Z,3.76
2019-01-18T15:42:41.002Z,3.70
2019-01-18T15:43:41.010Z,3.73
2019-01-18T15:45:33.909Z,3.60
2019-01-18T15:46:33.915Z,3.58
2019-01-18T15:48:26.808Z,3.50
2019-01-18T15:49:26.812Z,3.62
2019-01-18T15:51:19.705Z,3.52
2019-01-18T15:52:19.714Z,3.40
2019-01-18T15:54:12.780Z,3.40
2019-01-18T15:55:12.607Z,3.42
2019-01-18T15:57:05.571Z,3.33
2019-01-18T15:58:05.545Z,3.31
2019-01-18T15:59:58.527Z,3.32
2019-01-18T16:00:58.444Z,3.31
2019-01-18T16:02:51.336Z,3.14
2019-01-18T16:03:51.357Z,3.15
2019-01-18T16:05:44.254Z,3.18
2019-01-18T16:06:44.270Z,3.05
2019-01-18T16:08:37.196Z,3.10
2019-01-18T16:09:37.143Z,3.13
2019-01-18T16:11:30.029Z,3.02
2019-01-18T16:12:30.039Z,2.99
2019-01-18T16:14:22.932Z,2.89
2019-01-18T16:15:22.933Z,2.82
2019-01-18T16:17:15.891Z,2.89
2019-01-18T16:18:15.831Z,2.85
2019-01-18T16:20:08.724Z,2.85
2019-01-18T16:21:08.726Z,2.78
2019-01-18T16:23:01.618Z,2.75
2019-01-18T16:24:01.625Z,2.79
2019-01-18T16:25:54.528Z,2.69
2019-01-18T16:26:54.526Z,2.72
2019-01-18T16:28:47.569Z,2.72
2019-01-18T16:29:47.483Z,2.69
2019-01-18T16:31:40.373Z,2.59
2019-01-18T16:32:40.381Z,2.57
2019-01-18T16:34:33.282Z,2.53
2019-01-18T16:35:33.282Z,2.56
2019-01-18T16:37:26.174Z,2.46
2019-01-18T16:38:26.189Z,2.49
2019-01-18T16:40:19.081Z,2.46
2019-01-18T16:41:19.081Z,2.53
2019-01-18T16:43:11.972Z,2.52
2019-01-18T16:44:11.979Z,2.48
2019-01-18T16:46:04.878Z,2.45
2019-01-18T16:47:04.876Z,2.36
2019-01-18T16:48:57.766Z,2.43
2019-01-18T16:49:57.773Z,2.36
2019-01-18T16:51:50.668Z,2.31
2019-01-18T16:52:50.671Z,2.30
2019-01-18T18:14:21.752Z,1.18
2019-01-18T18:15:06.512Z,1.18
2019-01-18T18:45:59.580Z,1.02
2019-01-18T18:46:59.422Z,1.02
2019-01-18T18:48:52.315Z,0.90
2019-01-18T18:49:52.318Z,0.88
2019-01-18T18:51:45.210Z,0.88
2019-01-18T18:52:45.211Z,0.90
2019-01-18T18:54:38.105Z,0.86
2019-01-18T18:55:38.106Z,0.98
2019-01-18T18:57:31.020Z,0.96
2019-01-18T18:58:31.002Z,1.00
2019-01-18T19:00:23.923Z,1.02
2019-01-18T19:01:23.896Z,1.04
2019-01-18T19:03:16.791Z,0.94
2019-01-18T19:04:16.794Z,0.96
2019-01-18T19:06:09.692Z,0.98
2019-01-18T19:07:09.704Z,0.86
2019-01-18T19:09:02.597Z,0.91
2019-01-18T19:10:02.600Z,0.90
2019-01-18T19:11:55.484Z,0.76
2019-01-18T19:12:55.494Z,0.78
2019-01-18T19:14:48.389Z,0.79
2019-01-18T19:15:48.387Z,0.76
2019-01-18T19:17:41.284Z,0.70
2019-01-18T19:18:41.296Z,0.68
2019-01-18T19:20:34.187Z,0.69
2019-01-18T19:21:34.190Z,0.72
2019-01-18T19:23:27.100Z,0.53
2019-01-18T19:24:27.110Z,0.60
2019-01-18T19:26:20.003Z,0.58
2019-01-18T19:27:20.005Z,0.60
2019-01-18T19:35:55.147Z,0.58
2019-01-18T19:36:55.190Z,0.51
2019-01-18T19:38:48.037Z,0.51
2019-01-18T19:39:48.050Z,0.60
2019-01-18T19:41:40.979Z,0.58
2019-01-18T19:42:40.945Z,0.68
2019-01-18T19:44:33.834Z,0.68
2019-01-18T19:45:33.837Z,0.68
2019-01-18T19:47:26.722Z,0.66
2019-01-18T19:48:26.730Z,0.72
2019-01-18T19:50:19.623Z,0.57
2019-01-18T19:51:19.625Z,0.55
2019-01-18T19:53:12.516Z,0.62
2019-01-18T19:54:12.521Z,0.61
2019-01-18T19:56:05.458Z,0.57
2019-01-18T19:57:05.461Z,0.57
2019-01-18T19:58:58.354Z,0.57
2019-01-18T19:59:58.363Z,0.62
2019-01-18T20:01:51.255Z,0.51
2019-01-18T20:02:51.258Z,0.49
2019-01-18T20:04:44.150Z,0.51
2019-01-18T20:05:44.150Z,0.51
2019-01-18T20:07:37.036Z,0.55
2019-01-18T20:08:37.046Z,0.55
2019-01-18T20:10:29.940Z,0.49
2019-01-18T20:11:29.938Z,0.47
2019-01-18T20:13:22.824Z,0.55
2019-01-18T20:14:22.833Z,0.49
2019-01-18T20:16:15.731Z,0.49
2019-01-18T20:17:15.734Z,0.36
2019-01-18T20:19:08.619Z,0.33
2019-01-18T20:20:08.626Z,0.38
2019-01-18T20:22:01.657Z,0.33
2019-01-18T20:23:01.530Z,0.28
2019-01-18T20:24:54.557Z,0.36
2019-01-18T20:25:54.517Z,0.32
2019-01-18T20:27:47.331Z,0.32
2019-01-18T20:28:47.505Z,0.24
2019-01-18T20:30:40.230Z,0.21
2019-01-18T20:31:40.283Z,0.28
2019-01-18T20:33:33.120Z,0.23
2019-01-18T20:34:33.149Z,0.17
2019-01-18T20:36:26.038Z,0.23
2019-01-18T20:37:26.026Z,0.26
2019-01-18T20:39:18.954Z,0.23
2019-01-18T20:40:18.983Z,0.17
2019-01-18T20:42:11.884Z,0.33
2019-01-18T20:43:11.859Z,0.35
2019-01-18T20:45:04.741Z,0.29
2019-01-18T20:46:04.758Z,0.32
2019-01-18T20:47:57.648Z,0.31
2019-01-18T20:48:57.644Z,0.33
2019-01-18T20:50:50.627Z,0.20
2019-01-18T20:51:50.538Z,0.39
2019-01-18T20:53:43.427Z,0.33
2019-01-18T20:54:43.431Z,0.33
2019-01-18T20:56:36.326Z,0.33
2019-01-18T20:57:36.323Z,0.31
2019-01-18T20:59:29.207Z,0.20
2019-01-18T21:00:29.216Z,0.23
2019-01-18T21:02:22.114Z,0.24
2019-01-18T21:03:22.284Z,0.20
2019-01-18T21:05:15.070Z,0.11